createdAt,value
2022-10-06T00:01:47.984Z,13.7
2022-10-06T00:21:48.853Z,13.6
2022-10-06T00:31:49.174Z,13.6
2022-10-06T00:41:49.787Z,13.6
2022-10-06T00:51:50.574Z,13.6
2022-10-06T01:01:50.959Z,13.4
2022-10-06T01:11:51.311Z,13.4
2022-10-06T01:21:52.058Z,13.3
2022-10-06T01:41:53.196Z,13.1
2022-10-06T01:51:54.070Z,13
2022-10-06T02:01:54.286Z,13
2022-10-06T02:21:55.479Z,12.9
2022-10-06T02:31:56.037Z,12.9
2022-10-06T02:41:57.014Z,12.9
2022-10-06T02:51:57.698Z,12.9
2022-10-06T03:01:58.413Z,12.9
2022-10-06T03:11:58.800Z,12.9
2022-10-06T03:21:59.200Z,12.8
2022-10-06T03:32:00.210Z,12.7
2022-10-06T03:42:00.842Z,12.6
2022-10-06T03:52:01.530Z,12.5
2022-10-06T04:02:01.598Z,12.4
2022-10-06T04:32:02.483Z,12.1
2022-10-06T04:42:02.552Z,12
2022-10-06T04:52:02.992Z,11.9
2022-10-06T05:02:03.310Z,11.7
2022-10-06T05:12:03.715Z,11.7
2022-10-06T05:22:04.638Z,11.6
2022-10-06T05:32:05.086Z,11.6
2022-10-06T05:42:05.774Z,11.5
2022-10-06T05:52:06.690Z,11.4
2022-10-06T06:02:07.108Z,11.4
2022-10-06T06:12:07.284Z,11.4
2022-10-06T06:22:08.035Z,11.4
2022-10-06T06:32:08.581Z,11.5
2022-10-06T06:42:08.978Z,11.5
2022-10-06T06:52:09.316Z,11.6
2022-10-06T07:02:09.880Z,11.7
2022-10-06T07:12:10.160Z,11.8
2022-10-06T07:22:10.655Z,12
2022-10-06T07:32:11.683Z,12.2
2022-10-06T07:42:12.337Z,12.3
2022-10-06T07:52:13.322Z,12.6
2022-10-06T08:02:13.455Z,12.9
2022-10-06T08:12:13.522Z,13
2022-10-06T08:22:14.487Z,13.2
2022-10-06T08:32:14.993Z,13.3
2022-10-06T08:42:15.379Z,13.6
2022-10-06T08:52:16.389Z,13.7
2022-10-06T09:02:17.296Z,13.9
2022-10-06T09:12:17.610Z,14
2022-10-06T10:02:20.414Z,14.8
2022-10-06T10:12:21.131Z,14.7
2022-10-06T10:22:21.375Z,14.7
2022-10-06T10:32:22.181Z,15.2
2022-10-06T10:42:22.532Z,15.4
2022-10-06T10:52:23.308Z,15.6
2022-10-06T11:02:23.610Z,15.6
2022-10-06T11:22:24.680Z,15.9
2022-10-06T11:42:25.722Z,16.1
2022-10-06T11:52:26.183Z,16.7
2022-10-06T12:02:26.593Z,16.6
2022-10-06T12:22:27.027Z,17.1
2022-10-06T12:32:27.917Z,16.8
2022-10-06T12:42:28.144Z,16.9
2022-10-06T12:52:28.587Z,16.9
2022-10-06T13:02:29.494Z,17.3
2022-10-06T13:12:29.840Z,17.3
2022-10-06T13:22:30.362Z,17.3
2022-10-06T13:32:30.502Z,17.2
2022-10-06T13:42:30.564Z,17.5
2022-10-06T13:52:31.239Z,17.4
2022-10-06T14:02:31.638Z,17.4
2022-10-06T14:12:32.148Z,17.4
2022-10-06T14:22:33.094Z,18
2022-10-06T14:32:33.981Z,17.3
2022-10-06T14:42:34.940Z,17.6
2022-10-06T14:52:35.160Z,17.2
2022-10-06T15:02:35.875Z,17.4
2022-10-06T15:02:57.794Z,17.5
2022-10-06T15:12:41.703Z,17.2
2022-10-06T15:22:41.810Z,17.2
2022-10-06T15:32:41.982Z,17.3
2022-10-06T15:42:42.585Z,17
2022-10-06T15:52:43.444Z,16.9
2022-10-06T16:02:43.730Z,16.7
2022-10-06T16:12:43.956Z,16.3
2022-10-06T16:22:44.708Z,16
2022-10-06T16:32:44.863Z,15.8
2022-10-06T16:42:45.359Z,15.4
2022-10-06T16:52:45.431Z,15.2
2022-10-06T17:02:45.827Z,14.8
2022-10-06T17:12:46.196Z,14.6
2022-10-06T17:22:46.242Z,14.2
2022-10-06T17:32:46.370Z,14.1
2022-10-06T17:42:47.262Z,14
2022-10-06T17:52:47.747Z,13.6
2022-10-06T18:12:48.320Z,12.6
2022-10-06T18:22:49.268Z,12.3
2022-10-06T18:42:50.716Z,11.8
2022-10-06T18:52:51.236Z,11.6
2022-10-06T19:02:51.405Z,11.5
2022-10-06T19:12:52.274Z,11.5
2022-10-06T19:22:52.803Z,11.2
2022-10-06T19:32:53.301Z,11
2022-10-06T19:42:54.003Z,10.8
2022-10-06T19:52:54.936Z,10.6
2022-10-06T20:02:55.624Z,10.5
2022-10-06T20:22:57.011Z,10.4
2022-10-06T20:32:57.080Z,10.4
2022-10-06T20:42:57.266Z,10.4
2022-10-06T20:52:57.879Z,10.4
2022-10-06T21:02:58.859Z,10.2
2022-10-06T21:12:58.861Z,10.2
2022-10-06T21:22:59.133Z,10.1
2022-10-06T21:32:59.471Z,10.1
2022-10-06T21:42:59.908Z,10.1
2022-10-06T21:53:00.194Z,10.1
2022-10-06T22:03:00.693Z,10
2022-10-06T22:13:01.607Z,9.9
2022-10-06T22:23:04.830Z,9.9
2022-10-06T22:33:03.149Z,10
2022-10-06T22:43:04.000Z,9.9
2022-10-06T22:53:04.654Z,9.8
2022-10-06T23:03:04.899Z,9.8
2022-10-06T23:13:04.953Z,9.7
2022-10-06T23:23:05.179Z,9.7
2022-10-06T23:33:05.315Z,9.7
2022-10-06T23:53:06.460Z,9.7
